createdAt,value
2018-12-22T00:00:13.146Z,999.78
2018-12-22T00:01:13.133Z,999.83
2018-12-22T00:02:13.111Z,999.78
2018-12-22T00:03:13.108Z,999.81
2018-12-22T00:04:13.088Z,999.83
2018-12-22T00:05:13.090Z,999.84
2018-12-22T00:06:13.065Z,999.83
2018-12-22T00:07:13.052Z,999.82
2018-12-22T00:08:13.078Z,999.92
2018-12-22T00:09:13.032Z,999.85
2018-12-22T00:10:13.023Z,999.91
2018-12-22T00:11:13.026Z,999.95
2018-12-22T00:12:13.001Z,999.88
2018-12-22T00:13:12.989Z,999.87
2018-12-22T00:14:12.995Z,999.84
2018-12-22T00:15:12.963Z,999.79
2018-12-22T00:16:12.953Z,999.90
2018-12-22T00:17:12.959Z,999.92
2018-12-22T00:18:12.932Z,999.88
2018-12-22T00:19:12.917Z,999.95
2018-12-22T00:20:12.966Z,999.91
2018-12-22T00:21:12.897Z,999.91
2018-12-22T00:22:12.907Z,999.90
2018-12-22T00:23:12.891Z,999.93
2018-12-22T00:24:12.867Z,999.91
2018-12-22T00:25:12.860Z,999.90
2018-12-22T00:26:12.861Z,999.84
2018-12-22T00:27:12.833Z,999.88
2018-12-22T00:28:12.853Z,999.88
2018-12-22T00:29:12.852Z,999.88
2018-12-22T00:30:12.800Z,999.81
2018-12-22T00:31:12.786Z,999.86
2018-12-22T00:32:12.777Z,999.93
2018-12-22T00:33:12.767Z,999.93
2018-12-22T00:34:12.756Z,999.89
2018-12-22T00:35:12.769Z,1000.01
2018-12-22T00:36:12.731Z,999.99
2018-12-22T00:37:12.720Z,999.98
2018-12-22T00:38:12.711Z,1000.01
2018-12-22T00:39:12.697Z,999.99
2018-12-22T00:40:12.712Z,1000.02
2018-12-22T00:41:12.701Z,1000.01
2018-12-22T00:42:12.663Z,999.93
2018-12-22T00:43:12.765Z,1000.03
2018-12-22T00:44:12.644Z,1000.04
2018-12-22T00:45:12.635Z,1000.07
2018-12-22T00:46:12.637Z,1000.07
2018-12-22T00:47:12.616Z,1000.14
2018-12-22T00:48:12.598Z,1000.10
2018-12-22T00:49:12.591Z,1000.12
2018-12-22T00:50:12.575Z,1000.16
2018-12-22T00:51:12.567Z,1000.15
2018-12-22T00:52:12.575Z,1000.16
2018-12-22T00:53:12.562Z,1000.12
2018-12-22T00:54:12.539Z,1000.14
2018-12-22T00:55:12.520Z,1000.14
2018-12-22T00:56:12.510Z,1000.19
2018-12-22T00:57:12.525Z,1000.11
2018-12-22T00:58:12.488Z,1000.11
2018-12-22T00:59:12.493Z,1000.15
2018-12-22T01:00:13.779Z,1000.11
2018-12-22T01:01:12.454Z,1000.11
2018-12-22T01:02:12.442Z,1000.10
2018-12-22T01:03:12.442Z,1000.14
2018-12-22T01:04:12.426Z,1000.16
2018-12-22T01:05:12.435Z,1000.14
2018-12-22T01:06:12.398Z,1000.09
2018-12-22T01:07:12.385Z,1000.15
2018-12-22T01:08:12.399Z,1000.18
2018-12-22T01:09:12.374Z,1000.09
2018-12-22T01:10:12.358Z,1000.17
2018-12-22T01:11:12.341Z,1000.14
2018-12-22T01:12:12.354Z,1000.14
2018-12-22T01:13:12.321Z,1000.13
2018-12-22T01:14:12.321Z,1000.15
2018-12-22T01:15:12.298Z,1000.17
2018-12-22T01:16:12.293Z,1000.23
2018-12-22T01:17:12.275Z,1000.17
2018-12-22T01:18:12.359Z,1000.17
2018-12-22T01:19:12.255Z,1000.16
2018-12-22T01:20:12.262Z,1000.15
2018-12-22T01:21:12.231Z,1000.14
2018-12-22T01:22:12.218Z,1000.16
2018-12-22T01:23:12.207Z,1000.18
2018-12-22T01:24:12.206Z,1000.17
2018-12-22T01:25:12.185Z,1000.13
2018-12-22T01:26:12.196Z,1000.18
2018-12-22T01:27:12.164Z,1000.17
2018-12-22T01:28:12.152Z,1000.19
2018-12-22T01:29:12.140Z,1000.18
2018-12-22T01:30:12.145Z,1000.21
2018-12-22T01:31:12.121Z,1000.19
2018-12-22T01:32:12.120Z,1000.26
2018-12-22T01:33:12.096Z,1000.28
2018-12-22T01:34:12.121Z,1000.26
2018-12-22T01:35:12.073Z,1000.24
2018-12-22T01:36:12.063Z,1000.22
2018-12-22T01:37:12.090Z,1000.21
2018-12-22T01:38:12.041Z,1000.23
2018-12-22T01:39:12.030Z,1000.24
2018-12-22T01:40:12.018Z,1000.24
2018-12-22T01:41:12.052Z,1000.24
2018-12-22T01:42:11.997Z,1000.23
2018-12-22T01:43:12.034Z,1000.27
2018-12-22T01:44:11.979Z,1000.23
2018-12-22T01:45:11.960Z,1000.23
2018-12-22T01:46:11.949Z,1000.29
2018-12-22T01:47:11.943Z,1000.27
2018-12-22T01:48:11.928Z,1000.24
2018-12-22T01:49:11.938Z,1000.22
2018-12-22T01:50:11.918Z,1000.19
2018-12-22T01:51:11.900Z,1000.21
2018-12-22T01:52:11.890Z,1000.22
2018-12-22T01:53:11.875Z,1000.23
2018-12-22T01:54:11.884Z,1000.25
2018-12-22T01:55:11.852Z,1000.23
2018-12-22T01:56:11.866Z,1000.16
2018-12-22T01:57:11.829Z,1000.14
2018-12-22T01:58:11.816Z,1000.26
2018-12-22T01:59:11.811Z,1000.19
2018-12-22T02:00:11.805Z,1000.21
2018-12-22T02:01:11.783Z,1000.20
2018-12-22T02:02:11.774Z,1000.21
2018-12-22T02:03:11.804Z,1000.24
2018-12-22T02:04:11.752Z,1000.20
2018-12-22T02:05:11.754Z,1000.19
2018-12-22T02:06:11.731Z,1000.11
2018-12-22T02:07:11.717Z,1000.16
2018-12-22T02:08:20.319Z,1000.25
2018-12-22T02:09:11.697Z,1000.20
2018-12-22T02:10:11.687Z,1000.17
2018-12-22T02:11:11.698Z,1000.13
2018-12-22T02:12:11.660Z,1000.15
2018-12-22T02:13:11.650Z,1000.15
2018-12-22T02:14:11.651Z,1000.19
2018-12-22T02:15:11.637Z,1000.12
2018-12-22T02:16:11.616Z,1000.13
2018-12-22T02:17:11.606Z,1000.11
2018-12-22T02:18:11.594Z,1000.08
2018-12-22T02:19:11.600Z,1000.14
2018-12-22T02:20:11.592Z,1000.13
2018-12-22T02:21:11.558Z,1000.14
2018-12-22T02:22:11.548Z,1000.15
2018-12-22T02:23:11.538Z,1000.11
2018-12-22T02:24:11.529Z,1000.11
2018-12-22T02:25:11.553Z,1000.10
2018-12-22T02:26:11.503Z,1000.10
2018-12-22T02:27:11.515Z,1000.04
2018-12-22T02:28:11.484Z,1000.02
2018-12-22T02:29:11.470Z,1000.07
2018-12-22T02:30:11.463Z,1000.05
2018-12-22T02:31:11.464Z,1000.05
2018-12-22T02:32:11.435Z,1000.07
2018-12-22T02:33:11.442Z,1000.04
2018-12-22T02:34:11.414Z,999.95
2018-12-22T02:35:11.407Z,999.92
2018-12-22T02:36:11.394Z,999.88
2018-12-22T02:37:11.393Z,999.87
2018-12-22T02:38:11.369Z,999.87
2018-12-22T02:39:11.371Z,999.87
2018-12-22T02:40:11.347Z,999.87
2018-12-22T02:41:11.335Z,999.89
2018-12-22T02:42:11.344Z,999.87
2018-12-22T02:43:11.315Z,999.87
2018-12-22T02:44:11.301Z,999.90
2018-12-22T02:45:11.310Z,999.87
2018-12-22T02:46:11.422Z,999.86
2018-12-22T02:47:11.271Z,999.86
2018-12-22T02:48:11.277Z,999.87
2018-12-22T02:49:11.252Z,999.82
2018-12-22T02:50:11.239Z,999.83
2018-12-22T02:51:11.236Z,999.80
2018-12-22T02:52:11.215Z,999.82
2018-12-22T02:53:11.207Z,999.83
2018-12-22T02:54:11.204Z,999.81
2018-12-22T02:55:11.204Z,999.81
2018-12-22T02:56:11.171Z,999.80
2018-12-22T02:57:11.163Z,999.70
2018-12-22T02:58:11.174Z,999.73
2018-12-22T02:59:11.137Z,999.72
2018-12-22T03:00:11.127Z,999.72
2018-12-22T03:01:11.132Z,999.67
2018-12-22T03:02:11.104Z,999.64
2018-12-22T03:03:11.096Z,999.58
2018-12-22T03:04:11.096Z,999.61
2018-12-22T03:05:11.073Z,999.59
2018-12-22T03:06:11.058Z,999.58
2018-12-22T03:07:11.062Z,999.55
2018-12-22T03:08:11.038Z,999.58
2018-12-22T03:09:11.030Z,999.51
2018-12-22T03:10:11.048Z,999.51
2018-12-22T03:11:11.003Z,999.48
2018-12-22T03:12:10.992Z,999.49
2018-12-22T03:13:10.997Z,999.43
2018-12-22T03:14:10.972Z,999.51
2018-12-22T03:15:10.962Z,999.43
2018-12-22T03:16:10.961Z,999.39
2018-12-22T03:17:10.939Z,999.36
2018-12-22T03:18:10.925Z,999.35
2018-12-22T03:19:10.922Z,999.30
2018-12-22T03:20:10.902Z,999.27
2018-12-22T03:21:10.891Z,999.21
2018-12-22T03:22:10.895Z,999.21
2018-12-22T03:23:10.876Z,999.16
2018-12-22T03:24:10.872Z,999.13
2018-12-22T03:25:10.858Z,999.17
2018-12-22T03:26:10.836Z,999.14
2018-12-22T03:27:10.826Z,999.14
2018-12-22T03:28:10.826Z,999.12
2018-12-22T03:29:15.439Z,999.14
2018-12-22T03:30:11.808Z,999.10
2018-12-22T03:31:10.796Z,999.06
2018-12-22T03:32:10.785Z,999.04
2018-12-22T03:33:10.760Z,998.99
2018-12-22T03:34:10.778Z,999.01
2018-12-22T03:35:10.735Z,999.00
2018-12-22T03:36:10.739Z,998.99
2018-12-22T03:37:10.726Z,998.96
2018-12-22T03:38:10.709Z,998.97
2018-12-22T03:39:10.724Z,998.98
2018-12-22T03:40:10.683Z,998.96
2018-12-22T03:41:10.667Z,998.95
2018-12-22T03:42:10.680Z,998.91
2018-12-22T03:43:10.647Z,998.86
2018-12-22T03:44:10.656Z,998.83
2018-12-22T03:45:10.626Z,998.79
2018-12-22T03:46:10.612Z,998.77
2018-12-22T03:47:10.632Z,998.81
2018-12-22T03:48:10.603Z,998.78
2018-12-22T03:49:10.581Z,998.79
2018-12-22T03:50:10.570Z,998.74
2018-12-22T03:51:10.557Z,998.73
2018-12-22T03:52:10.547Z,998.72
2018-12-22T03:53:10.553Z,998.75
2018-12-22T03:54:10.654Z,998.71
2018-12-22T03:55:10.513Z,998.75
2018-12-22T03:56:10.504Z,998.73
2018-12-22T03:57:10.490Z,998.77
2018-12-22T03:58:10.483Z,998.74
2018-12-22T03:59:10.485Z,998.83
2018-12-22T04:00:10.459Z,998.84
2018-12-22T04:01:10.445Z,998.83
2018-12-22T04:02:10.433Z,998.82
2018-12-22T04:03:11.961Z,998.93
2018-12-22T04:04:10.548Z,998.95
2018-12-22T04:05:10.399Z,998.99
2018-12-22T04:06:10.392Z,999.00
2018-12-22T04:07:10.377Z,999.05
2018-12-22T04:08:10.363Z,999.03
2018-12-22T04:09:10.352Z,999.10
2018-12-22T04:10:10.368Z,999.07
2018-12-22T04:11:10.334Z,999.07
2018-12-22T04:12:10.344Z,999.06
2018-12-22T04:13:10.335Z,999.08
2018-12-22T04:14:10.303Z,999.09
2018-12-22T04:15:10.288Z,999.05
2018-12-22T04:16:10.287Z,999.07
2018-12-22T04:17:10.269Z,999.07
2018-12-22T04:18:10.280Z,999.00
2018-12-22T04:19:10.241Z,999.02
2018-12-22T04:20:10.232Z,999.01
2018-12-22T04:21:10.216Z,998.99
2018-12-22T04:22:10.211Z,998.95
2018-12-22T04:23:10.199Z,998.96
2018-12-22T04:24:10.222Z,998.97
2018-12-22T04:25:10.190Z,998.95
2018-12-22T04:26:10.174Z,999.01
2018-12-22T04:27:10.152Z,998.90
2018-12-22T04:28:10.142Z,998.92
2018-12-22T04:29:10.147Z,998.95
2018-12-22T04:30:10.120Z,998.96
2018-12-22T04:31:10.132Z,999.02
2018-12-22T04:32:10.096Z,998.93
2018-12-22T04:33:10.086Z,998.95
2018-12-22T04:34:10.076Z,998.96
2018-12-22T04:35:10.077Z,998.96
2018-12-22T04:36:10.048Z,998.94
2018-12-22T04:37:10.056Z,998.94
2018-12-22T04:38:10.068Z,998.96
2018-12-22T04:39:10.017Z,998.94
2018-12-22T04:40:10.005Z,998.91
2018-12-22T04:41:09.995Z,998.89
2018-12-22T04:42:09.990Z,998.79
2018-12-22T04:43:09.984Z,998.72
2018-12-22T04:44:09.985Z,998.72
2018-12-22T04:45:09.955Z,998.68
2018-12-22T04:46:09.953Z,998.66
2018-12-22T04:47:09.943Z,998.58
2018-12-22T04:48:09.918Z,998.45
2018-12-22T04:49:09.906Z,998.51
2018-12-22T04:50:09.892Z,998.40
2018-12-22T04:51:09.905Z,998.27
2018-12-22T04:52:09.887Z,998.25
2018-12-22T04:53:09.872Z,998.18
2018-12-22T04:54:09.865Z,998.12
2018-12-22T04:55:09.839Z,998.12
2018-12-22T04:56:09.826Z,998.05
2018-12-22T04:57:09.832Z,998.07
2018-12-22T04:58:09.811Z,998.08
2018-12-22T04:59:09.796Z,998.14
2018-12-22T05:00:09.802Z,998.17
2018-12-22T05:01:09.773Z,998.22
2018-12-22T05:02:09.760Z,998.27
2018-12-22T05:03:09.792Z,998.27
2018-12-22T05:04:09.737Z,998.31
2018-12-22T05:05:09.729Z,998.39
2018-12-22T05:06:09.726Z,998.42
2018-12-22T05:07:09.703Z,998.37
2018-12-22T05:08:09.697Z,998.34
2018-12-22T05:09:09.683Z,998.31
2018-12-22T05:10:09.687Z,998.29
2018-12-22T05:11:09.678Z,998.24
2018-12-22T05:12:09.660Z,998.18
2018-12-22T05:13:09.638Z,998.22
2018-12-22T05:14:09.629Z,998.23
2018-12-22T05:15:09.617Z,998.26
2018-12-22T05:16:09.609Z,998.26
2018-12-22T05:17:09.629Z,998.26
2018-12-22T05:18:09.583Z,998.30
2018-12-22T05:19:09.573Z,998.24
2018-12-22T05:20:09.562Z,998.26
2018-12-22T05:21:09.551Z,998.25
2018-12-22T05:22:09.541Z,998.32
2018-12-22T05:23:09.548Z,998.33
2018-12-22T05:24:09.514Z,998.37
2018-12-22T05:25:09.512Z,998.34
2018-12-22T05:26:09.506Z,998.35
2018-12-22T05:27:09.481Z,998.40
2018-12-22T05:28:09.470Z,998.47
2018-12-22T05:29:09.487Z,998.48
2018-12-22T05:30:09.446Z,998.44
2018-12-22T05:31:09.439Z,998.53
2018-12-22T05:32:09.443Z,998.53
2018-12-22T05:33:09.418Z,998.50
2018-12-22T05:34:09.414Z,998.54
2018-12-22T05:35:09.407Z,998.50
2018-12-22T05:36:09.384Z,998.47
2018-12-22T05:37:09.369Z,998.53
2018-12-22T05:38:09.360Z,998.47
2018-12-22T05:39:09.368Z,998.50
2018-12-22T05:40:09.347Z,998.49
2018-12-22T05:41:09.352Z,998.51
2018-12-22T05:42:09.319Z,998.43
2018-12-22T05:43:09.305Z,998.39
2018-12-22T05:44:09.296Z,998.41
2018-12-22T05:45:09.291Z,998.45
2018-12-22T05:46:09.272Z,998.40
2018-12-22T05:47:09.262Z,998.42
2018-12-22T05:48:09.248Z,998.45
2018-12-22T05:49:09.249Z,998.47
2018-12-22T05:50:09.250Z,998.51
2018-12-22T05:51:09.219Z,998.43
2018-12-22T05:52:09.203Z,998.59
2018-12-22T05:53:09.287Z,998.56
2018-12-22T05:54:09.199Z,998.56
2018-12-22T05:55:09.211Z,998.64
2018-12-22T05:56:09.181Z,998.71
2018-12-22T05:57:09.145Z,998.75
2018-12-22T05:58:09.141Z,998.77
2018-12-22T05:59:09.127Z,998.79
2018-12-22T06:00:09.113Z,998.80
2018-12-22T06:01:09.180Z,998.86
2018-12-22T06:02:09.115Z,998.91
2018-12-22T06:03:09.170Z,998.83
2018-12-22T06:04:09.076Z,998.85
2018-12-22T06:05:09.062Z,998.86
2018-12-22T06:06:09.057Z,998.91
2018-12-22T06:07:09.042Z,999.03
2018-12-22T06:08:09.042Z,999.05
2018-12-22T06:09:09.015Z,999.09
2018-12-22T06:10:09.003Z,999.07
2018-12-22T06:11:09.030Z,999.06
2018-12-22T06:12:08.981Z,999.09
2018-12-22T06:13:08.989Z,999.08
2018-12-22T06:14:08.960Z,999.03
2018-12-22T06:15:08.951Z,999.05
2018-12-22T06:16:08.940Z,999.14
2018-12-22T06:17:08.965Z,999.15
2018-12-22T06:18:08.916Z,999.15
2018-12-22T06:19:08.918Z,999.17
2018-12-22T06:20:08.969Z,999.20
2018-12-22T06:21:08.882Z,999.19
2018-12-22T06:22:08.872Z,999.18
2018-12-22T06:23:08.875Z,999.11
2018-12-22T06:24:08.864Z,999.17
2018-12-22T06:25:08.840Z,999.20
2018-12-22T06:26:08.837Z,999.18
2018-12-22T06:27:08.816Z,999.21
2018-12-22T06:28:08.806Z,999.20
2018-12-22T06:29:08.793Z,999.26
2018-12-22T06:30:09.533Z,999.28
2018-12-22T06:31:08.770Z,999.39
2018-12-22T06:32:08.760Z,999.39
2018-12-22T06:33:08.759Z,999.41
2018-12-22T06:34:08.734Z,999.42
2018-12-22T06:35:08.750Z,999.42
2018-12-22T06:36:08.730Z,999.41
2018-12-22T06:37:08.705Z,999.47
2018-12-22T06:38:08.693Z,999.46
2018-12-22T06:39:08.684Z,999.54
2018-12-22T06:40:08.670Z,999.50
2018-12-22T06:41:08.673Z,999.58
2018-12-22T06:42:08.690Z,999.63
2018-12-22T06:43:08.637Z,999.66
2018-12-22T06:44:08.639Z,999.68
2018-12-22T06:45:08.614Z,999.71
2018-12-22T06:46:08.621Z,999.77
2018-12-22T06:47:08.594Z,999.76
2018-12-22T06:48:08.593Z,999.80
2018-12-22T06:49:08.611Z,999.79
2018-12-22T06:50:08.560Z,999.83
2018-12-22T06:51:08.547Z,999.89
2018-12-22T06:52:08.565Z,999.89
2018-12-22T06:53:08.528Z,999.93
2018-12-22T06:54:08.516Z,1000.04
2018-12-22T06:55:08.509Z,999.87
2018-12-22T06:56:08.498Z,1000.13
2018-12-22T06:57:08.482Z,1000.16
2018-12-22T06:58:08.484Z,1000.25
2018-12-22T06:59:08.459Z,1000.22
2018-12-22T07:00:08.458Z,1000.25
2018-12-22T07:01:08.446Z,1000.26
2018-12-22T07:02:08.483Z,1000.37
2018-12-22T07:03:08.423Z,1000.40
2018-12-22T07:04:08.433Z,1000.52
2018-12-22T07:05:08.389Z,1000.55
2018-12-22T07:06:08.382Z,1000.58
2018-12-22T07:07:08.371Z,1000.67
2018-12-22T07:08:08.359Z,1000.71
2018-12-22T07:09:08.346Z,1000.72
2018-12-22T07:10:08.398Z,1000.79
2018-12-22T07:11:08.354Z,1000.78
2018-12-22T07:12:08.312Z,1000.85
2018-12-22T07:13:15.856Z,1000.86
2018-12-22T07:14:15.848Z,1000.91
2018-12-22T07:15:16.944Z,1000.90
2018-12-22T07:16:15.826Z,1000.89
2018-12-22T07:17:15.811Z,1000.99
2018-12-22T07:18:15.796Z,1001.00
2018-12-22T07:19:15.956Z,1001.06
2018-12-22T07:20:15.788Z,1001.14
2018-12-22T07:21:17.148Z,1001.17
2018-12-22T07:22:15.748Z,1001.20
2018-12-22T07:23:15.751Z,1001.22
2018-12-22T07:24:15.733Z,1001.22
2018-12-22T07:25:15.828Z,1001.22
2018-12-22T07:26:16.834Z,1001.25
2018-12-22T07:27:08.146Z,1001.22
2018-12-22T07:28:08.132Z,1001.27
2018-12-22T07:29:15.688Z,1001.33
2018-12-22T07:30:15.660Z,1001.34
2018-12-22T07:31:15.652Z,1001.30
2018-12-22T07:32:16.984Z,1001.34
2018-12-22T07:33:15.634Z,1001.35
2018-12-22T07:34:15.635Z,1001.38
2018-12-22T07:35:15.601Z,1001.38
2018-12-22T07:36:15.592Z,1001.41
2018-12-22T07:37:15.586Z,1001.48
2018-12-22T07:38:16.693Z,1001.46
2018-12-22T07:39:15.562Z,1001.54
2018-12-22T07:40:15.549Z,1001.60
2018-12-22T07:41:15.544Z,1001.65
2018-12-22T07:42:15.536Z,1001.65
2018-12-22T07:43:07.966Z,1001.71
2018-12-22T07:44:08.000Z,1001.71
2018-12-22T07:45:07.987Z,1001.73
2018-12-22T07:46:07.934Z,1001.76
2018-12-22T07:47:07.969Z,1001.79
2018-12-22T07:48:07.910Z,1001.82
2018-12-22T07:49:07.909Z,1001.86
2018-12-22T07:50:07.903Z,1001.93
2018-12-22T07:51:07.873Z,1001.97
2018-12-22T07:52:07.869Z,1002.00
2018-12-22T07:53:07.886Z,1002.00
2018-12-22T07:54:07.844Z,1002.02
2018-12-22T07:55:07.834Z,1002.01
2018-12-22T07:56:07.838Z,1002.07
2018-12-22T07:57:07.809Z,1002.10
2018-12-22T07:58:07.811Z,1002.14
2018-12-22T07:59:07.790Z,1002.15
2018-12-22T08:00:07.783Z,1002.16
2018-12-22T08:01:07.780Z,1002.17
2018-12-22T08:02:07.754Z,1002.20
2018-12-22T08:03:07.746Z,1002.19
2018-12-22T08:04:07.751Z,1002.22
2018-12-22T08:05:07.720Z,1002.25
2018-12-22T08:06:07.713Z,1002.28
2018-12-22T08:07:07.713Z,1002.27
2018-12-22T08:08:07.687Z,1002.33
2018-12-22T08:10:26.971Z,1002.37
2018-12-22T08:11:26.977Z,1002.43
2018-12-22T08:12:26.916Z,1002.46
2018-12-22T08:13:26.907Z,1002.50
2018-12-22T08:14:26.896Z,1002.47
2018-12-22T08:15:26.880Z,1002.50
2018-12-22T08:16:26.883Z,1002.57
2018-12-22T08:17:26.879Z,1002.62
2018-12-22T08:18:26.905Z,1002.59
2018-12-22T08:19:26.841Z,1002.69
2018-12-22T08:20:26.834Z,1002.66
2018-12-22T08:21:26.857Z,1002.63
2018-12-22T08:22:26.801Z,1002.67
2018-12-22T08:23:26.810Z,1002.68
2018-12-22T08:24:26.793Z,1002.73
2018-12-22T08:25:26.777Z,1002.80
2018-12-22T08:26:26.773Z,1002.76
2018-12-22T08:27:26.754Z,1002.80
2018-12-22T08:28:26.757Z,1002.85
2018-12-22T08:29:26.735Z,1002.81
2018-12-22T08:30:26.714Z,1002.82
2018-12-22T08:31:26.738Z,1002.88
2018-12-22T08:32:26.724Z,1002.90
2018-12-22T08:33:26.689Z,1002.91
2018-12-22T08:34:26.701Z,1002.92
2018-12-22T08:35:26.660Z,1002.95
2018-12-22T08:36:26.672Z,1002.98
2018-12-22T08:37:26.652Z,1003.02
2018-12-22T08:38:26.622Z,1003.05
2018-12-22T08:39:26.614Z,1003.09
2018-12-22T08:40:26.619Z,1003.10
2018-12-22T08:41:26.702Z,1003.11
2018-12-22T08:42:26.588Z,1003.13
2018-12-22T08:43:26.580Z,1003.20
2018-12-22T08:44:26.557Z,1003.26
2018-12-22T08:45:26.568Z,1003.27
2018-12-22T08:46:26.554Z,1003.31
2018-12-22T08:47:26.561Z,1003.31
2018-12-22T08:48:26.508Z,1003.34
2018-12-22T08:49:26.518Z,1003.43
2018-12-22T08:50:26.487Z,1003.40
2018-12-22T08:51:26.484Z,1003.39
2018-12-22T08:52:26.512Z,1003.43
2018-12-22T08:53:26.457Z,1003.46
2018-12-22T08:54:26.461Z,1003.50
2018-12-22T08:55:26.430Z,1003.50
2018-12-22T08:56:26.419Z,1003.52
2018-12-22T08:57:26.414Z,1003.53
2018-12-22T08:58:26.453Z,1003.57
2018-12-22T08:59:26.386Z,1003.58
2018-12-22T09:00:26.376Z,1003.61
2018-12-22T09:01:26.381Z,1003.63
2018-12-22T09:02:26.359Z,1003.67
2018-12-22T09:03:26.347Z,1003.67
2018-12-22T09:04:26.387Z,1003.72
2018-12-22T09:05:26.341Z,1003.75
2018-12-22T09:06:26.310Z,1003.82
2018-12-22T09:07:26.307Z,1003.86
2018-12-22T09:08:26.325Z,1003.87
2018-12-22T09:09:26.275Z,1003.87
2018-12-22T09:10:26.292Z,1003.91
2018-12-22T09:11:26.255Z,1003.94
2018-12-22T09:12:26.245Z,1003.96
2018-12-22T09:13:26.231Z,1004.01
2018-12-22T09:14:26.252Z,1004.04
2018-12-22T09:15:26.215Z,1004.06
2018-12-22T09:16:26.217Z,1004.12
2018-12-22T09:17:26.187Z,1004.15
2018-12-22T09:18:26.177Z,1004.23
2018-12-22T09:19:26.161Z,1004.23
2018-12-22T09:20:26.157Z,1004.21
2018-12-22T09:21:26.173Z,1004.25
2018-12-22T09:22:26.141Z,1004.25
2018-12-22T09:23:26.119Z,1004.30
2018-12-22T09:24:26.112Z,1004.34
2018-12-22T09:25:26.094Z,1004.34
2018-12-22T09:26:26.096Z,1004.40
2018-12-22T09:27:26.072Z,1004.42
2018-12-22T09:28:26.071Z,1004.40
2018-12-22T09:29:26.049Z,1004.44
2018-12-22T09:30:26.037Z,1004.42
2018-12-22T09:31:26.061Z,1004.48
2018-12-22T09:32:26.041Z,1004.51
2018-12-22T09:33:26.010Z,1004.49
2018-12-22T09:34:25.997Z,1004.51
2018-12-22T09:35:25.984Z,1004.53
2018-12-22T09:36:25.977Z,1004.52
2018-12-22T09:37:25.960Z,1004.54
2018-12-22T09:38:25.971Z,1004.52
2018-12-22T09:39:25.943Z,1004.55
2018-12-22T09:40:25.945Z,1004.59
2018-12-22T09:41:25.915Z,1004.61
2018-12-22T09:42:25.937Z,1004.61
2018-12-22T09:43:25.914Z,1004.60
2018-12-22T09:44:25.910Z,1004.56
2018-12-22T09:45:25.871Z,1004.59
2018-12-22T09:46:25.917Z,1004.62
2018-12-22T09:47:25.848Z,1004.59
2018-12-22T09:48:25.834Z,1004.64
2018-12-22T09:49:25.823Z,1004.64
2018-12-22T09:50:25.891Z,1004.62
2018-12-22T09:51:25.816Z,1004.66
2018-12-22T09:52:25.815Z,1004.63
2018-12-22T09:53:25.778Z,1004.63
2018-12-22T09:54:25.764Z,1004.64
2018-12-22T09:55:25.762Z,1004.64
2018-12-22T09:56:25.807Z,1004.61
2018-12-22T09:57:25.739Z,1004.60
2018-12-22T09:58:25.761Z,1004.65
2018-12-22T09:59:25.715Z,1004.64
2018-12-22T10:00:25.725Z,1004.64
2018-12-22T10:01:25.695Z,1004.65
2018-12-22T10:02:25.704Z,1004.65
2018-12-22T10:03:25.668Z,1004.64
2018-12-22T10:04:25.696Z,1004.66
2018-12-22T10:05:25.654Z,1004.67
2018-12-22T10:06:25.658Z,1004.63
2018-12-22T10:07:25.626Z,1004.69
2018-12-22T10:08:25.620Z,1004.64
2018-12-22T10:09:25.646Z,1004.63
2018-12-22T10:10:25.589Z,1004.71
2018-12-22T10:11:25.584Z,1004.66
2018-12-22T10:12:25.677Z,1004.69
2018-12-22T10:13:25.562Z,1004.72
2018-12-22T10:14:25.591Z,1004.73
2018-12-22T10:15:25.535Z,1004.72
2018-12-22T10:16:25.529Z,1004.77
2018-12-22T10:17:25.537Z,1004.82
2018-12-22T10:18:25.519Z,1004.80
2018-12-22T10:19:25.493Z,1004.82
2018-12-22T10:20:25.537Z,1004.83
2018-12-22T10:21:25.469Z,1004.88
2018-12-22T10:22:25.457Z,1004.81
2018-12-22T10:23:25.465Z,1004.85
2018-12-22T10:24:25.475Z,1004.86
2018-12-22T10:25:25.441Z,1004.86
2018-12-22T10:26:25.414Z,1004.86
2018-12-22T10:27:25.405Z,1004.81
2018-12-22T10:28:25.392Z,1004.81
2018-12-22T10:29:25.404Z,1004.83
2018-12-22T10:30:25.370Z,1004.83
2018-12-22T10:31:25.359Z,1004.82
2018-12-22T10:32:25.339Z,1004.81
2018-12-22T10:33:25.383Z,1004.81
2018-12-22T10:34:25.317Z,1004.83
2018-12-22T10:35:25.312Z,1004.82
2018-12-22T10:36:25.319Z,1004.82
2018-12-22T10:37:25.332Z,1004.80
2018-12-22T10:38:25.294Z,1004.84
2018-12-22T10:39:25.265Z,1004.78
2018-12-22T10:40:25.288Z,1004.84
2018-12-22T10:41:25.269Z,1004.87
2018-12-22T10:42:25.248Z,1004.82
2018-12-22T10:43:25.230Z,1004.83
2018-12-22T10:44:25.233Z,1004.85
2018-12-22T10:45:25.218Z,1004.90
2018-12-22T10:46:25.191Z,1004.89
2018-12-22T10:47:25.216Z,1004.88
2018-12-22T10:48:25.181Z,1004.86
2018-12-22T10:49:25.163Z,1004.88
2018-12-22T10:50:25.144Z,1004.92
2018-12-22T10:51:25.161Z,1004.93
2018-12-22T10:52:25.128Z,1005.00
2018-12-22T10:53:25.125Z,1004.96
2018-12-22T10:54:25.095Z,1004.97
2018-12-22T10:55:25.088Z,1004.99
2018-12-22T10:56:25.077Z,1004.97
2018-12-22T10:57:25.116Z,1005.03
2018-12-22T10:58:25.054Z,1005.04
2018-12-22T10:59:25.060Z,1004.99
2018-12-22T11:00:25.037Z,1005.07
2018-12-22T11:01:26.652Z,1004.96
2018-12-22T11:02:25.006Z,1004.99
2018-12-22T11:03:24.997Z,1005.02
2018-12-22T11:04:25.008Z,1005.08
2018-12-22T11:05:24.981Z,1005.12
2018-12-22T11:06:24.965Z,1005.09
2018-12-22T11:07:24.957Z,1005.12
2018-12-22T11:08:24.940Z,1005.13
2018-12-22T11:09:24.928Z,1005.15
2018-12-22T11:10:24.944Z,1005.19
2018-12-22T11:11:24.922Z,1005.17
2018-12-22T11:12:24.902Z,1005.23
2018-12-22T11:13:24.931Z,1005.18
2018-12-22T11:14:24.881Z,1005.24
2018-12-22T11:15:24.867Z,1005.26
2018-12-22T11:16:24.907Z,1005.22
2018-12-22T11:17:24.847Z,1005.28
2018-12-22T11:18:24.835Z,1005.27
2018-12-22T11:19:24.817Z,1005.26
2018-12-22T11:20:24.811Z,1005.32
2018-12-22T11:21:24.807Z,1005.28
2018-12-22T11:22:24.809Z,1005.32
2018-12-22T11:23:24.815Z,1005.30
2018-12-22T11:24:24.759Z,1005.37
2018-12-22T11:25:24.754Z,1005.34
2018-12-22T11:26:24.766Z,1005.35
2018-12-22T11:27:24.728Z,1005.38
2018-12-22T11:28:24.751Z,1005.36
2018-12-22T11:29:24.729Z,1005.35
2018-12-22T11:30:24.705Z,1005.41
2018-12-22T11:31:24.682Z,1005.43
2018-12-22T11:32:24.695Z,1005.43
2018-12-22T11:33:24.666Z,1005.45
2018-12-22T11:34:24.651Z,1005.42
2018-12-22T11:35:24.659Z,1005.51
2018-12-22T11:36:24.626Z,1005.49
2018-12-22T11:37:24.661Z,1005.40
2018-12-22T11:38:24.609Z,1005.41
2018-12-22T11:39:24.592Z,1005.40
2018-12-22T11:40:24.581Z,1005.38
2018-12-22T11:41:24.592Z,1005.38
2018-12-22T11:42:24.577Z,1005.41
2018-12-22T11:43:24.551Z,1005.38
2018-12-22T11:44:24.539Z,1005.39
2018-12-22T11:45:24.534Z,1005.41
2018-12-22T11:46:24.547Z,1005.44
2018-12-22T11:47:24.538Z,1005.50
2018-12-22T11:48:24.493Z,1005.46
2018-12-22T11:49:24.537Z,1005.43
2018-12-22T11:50:24.488Z,1005.54
2018-12-22T11:51:24.461Z,1005.51
2018-12-22T11:52:24.460Z,1005.55
2018-12-22T11:53:24.450Z,1005.57
2018-12-22T11:54:24.453Z,1005.58
2018-12-22T11:55:24.418Z,1005.59
2018-12-22T11:56:24.451Z,1005.59
2018-12-22T11:57:24.397Z,1005.59
2018-12-22T11:58:24.384Z,1005.55
2018-12-22T11:59:24.373Z,1005.53
2018-12-22T12:00:24.378Z,1005.58
2018-12-22T12:01:24.363Z,1005.61
2018-12-22T12:02:24.337Z,1005.58
2018-12-22T12:03:24.333Z,1005.63
2018-12-22T12:04:24.369Z,1005.63
2018-12-22T12:05:24.305Z,1005.66
2018-12-22T12:06:24.307Z,1005.64
2018-12-22T12:07:24.293Z,1005.63
2018-12-22T12:08:24.294Z,1005.71
2018-12-22T12:09:24.266Z,1005.75
2018-12-22T12:10:24.257Z,1005.75
2018-12-22T12:11:24.369Z,1005.77
2018-12-22T12:12:24.227Z,1005.70
2018-12-22T12:13:24.220Z,1005.73
2018-12-22T12:14:24.215Z,1005.75
2018-12-22T12:15:24.197Z,1005.75